Time;durP1;ratioP1;P1;durP2;ratioP2;P2;SDS_P1;SDS_P2;PMS_P1;PMS_P2;Temp;Humidity;BMP_temperature;BMP_pressure;BME280_temperature;BME280_humidity;BME280_pressure;Samples;Min_cycle;Max_cycle;Signal;HPM_P1;HPM_P2
2024/03/20 00:01:29;;;;;;;26.50;17.50;;;;;;;1.39;100.00;100883.16;110999;1231;75428;-66
2024/03/20 00:03:56;;;;;;;27.50;17.10;;;;;;;1.40;100.00;100886.05;111210;1231;70518;-66
2024/03/20 00:06:23;;;;;;;24.90;16.90;;;;;;;1.39;100.00;100884.71;111160;1231;71084;-68
2024/03/20 00:08:50;;;;;;;24.00;16.30;;;;;;;1.39;100.00;100887.02;111150;1235;61850;-70
2024/03/20 00:11:17;;;;;;;24.60;16.00;;;;;;;1.40;100.00;100887.88;111083;1231;59373;-67
2024/03/20 00:13:44;;;;;;;22.60;15.20;;;;;;;1.41;100.00;100887.08;111205;1231;74303;-67
2024/03/20 00:16:11;;;;;;;23.00;14.80;;;;;;;1.42;100.00;100882.42;111193;1231;72686;-67
2024/03/20 00:18:38;;;;;;;23.40;15.10;;;;;;;1.42;100.00;100875.30;111168;1231;73432;-66
2024/03/20 00:21:05;;;;;;;21.90;14.80;;;;;;;1.41;100.00;100869.73;111156;1231;62115;-67
2024/03/20 00:23:32;;;;;;;20.90;14.00;;;;;;;1.42;100.00;100869.46;111179;1231;61904;-65
2024/03/20 00:26:00;;;;;;;21.30;13.10;;;;;;;1.42;100.00;100867.33;111148;1231;75357;-67
2024/03/20 00:28:27;;;;;;;19.30;13.50;;;;;;;1.43;100.00;100869.84;111146;1231;71482;-65
2024/03/20 00:30:54;;;;;;;19.50;13.60;;;;;;;1.45;100.00;100871.04;111156;1235;73505;-67
2024/03/20 00:33:21;;;;;;;18.90;12.90;;;;;;;1.46;100.00;100875.79;111173;1231;63594;-67
2024/03/20 00:35:47;;;;;;;19.80;13.80;;;;;;;1.46;100.00;100878.45;111181;1231;61914;-66
2024/03/20 00:38:14;;;;;;;20.90;13.50;;;;;;;1.46;100.00;100881.05;111176;1231;75920;-65
2024/03/20 00:40:41;;;;;;;19.90;13.50;;;;;;;1.44;100.00;100876.70;111203;1231;71569;-66
2024/03/20 00:43:08;;;;;;;18.10;13.20;;;;;;;1.44;100.00;100873.52;111158;1231;72439;-66
2024/03/20 00:45:35;;;;;;;22.90;14.70;;;;;;;1.45;100.00;100872.20;111191;1231;62243;-69
2024/03/20 00:48:02;;;;;;;20.40;13.40;;;;;;;1.46;100.00;100869.83;111171;1231;60975;-68
2024/03/20 00:50:29;;;;;;;20.80;13.50;;;;;;;1.47;100.00;100862.10;111198;1231;75300;-68
2024/03/20 00:52:56;;;;;;;19.20;12.80;;;;;;;1.50;100.00;100862.00;111111;1235;71627;-68
2024/03/20 00:55:23;;;;;;;18.10;12.60;;;;;;;1.50;100.00;100857.27;111143;1231;73541;-68
2024/03/20 00:57:50;;;;;;;16.50;11.00;;;;;;;1.50;100.00;100857.96;111131;1231;61974;-67
2024/03/20 01:00:17;;;;;;;17.60;11.30;;;;;;;1.49;100.00;100854.42;111115;1231;61908;-67
2024/03/20 01:02:45;;;;;;;17.80;11.30;;;;;;;1.49;100.00;100851.42;111099;1235;76145;-68
2024/03/20 01:05:13;;;;;;;15.60;10.70;;;;;;;1.47;100.00;100851.13;111143;1231;72581;-66
2024/03/20 01:07:43;;;;;;;17.40;11.40;;;;;;;1.45;100.00;100853.06;111134;1231;71272;-66
2024/03/20 01:10:10;;;;;;;17.00;11.10;;;;;;;1.44;100.00;100851.14;111075;1231;62022;-66
2024/03/20 01:12:37;;;;;;;20.10;12.60;;;;;;;1.41;100.00;100850.92;111111;1231;62106;-66
2024/03/20 01:15:04;;;;;;;16.90;11.30;;;;;;;1.38;100.00;100851.83;111115;1235;75737;-67
2024/03/20 01:17:33;;;;;;;20.70;13.30;;;;;;;1.34;100.00;100851.83;111156;1231;72597;-68
2024/03/20 01:20:05;;;;;;;18.00;12.60;;;;;;;1.30;100.00;100851.14;110777;1231;379013;-66
2024/03/20 01:22:37;;;;;;;17.40;12.30;;;;;;;1.25;100.00;100851.41;111134;1231;62049;-66
2024/03/20 01:25:05;;;;;;;18.30;11.60;;;;;;;1.20;100.00;100850.59;111152;1235;62080;-67
2024/03/20 01:27:32;;;;;;;18.70;12.50;;;;;;;1.15;100.00;100850.20;111147;1232;75390;-67
2024/03/20 01:29:59;;;;;;;20.90;13.90;;;;;;;1.11;100.00;100844.28;111131;1231;71910;-67
2024/03/20 01:32:26;;;;;;;20.40;13.50;;;;;;;1.07;100.00;100841.29;111133;1235;72245;-66
2024/03/20 01:34:53;;;;;;;20.60;12.90;;;;;;;1.03;100.00;100841.05;111155;1231;61918;-69
2024/03/20 01:37:20;;;;;;;22.10;13.90;;;;;;;0.99;100.00;100840.11;111152;1231;61827;-68
2024/03/20 01:39:47;;;;;;;23.10;15.10;;;;;;;0.96;100.00;100835.99;111155;1231;75309;-66
2024/03/20 01:42:14;;;;;;;24.80;14.30;;;;;;;0.93;100.00;100840.02;111166;1232;71656;-66
2024/03/20 01:44:41;;;;;;;23.60;14.90;;;;;;;0.90;100.00;100836.27;111118;1231;72971;-66
2024/03/20 01:47:08;;;;;;;22.50;14.30;;;;;;;0.91;100.00;100835.70;111065;1236;61990;-66
2024/03/20 01:49:37;;;;;;;21.30;14.20;;;;;;;0.89;100.00;100833.83;110952;1231;61883;-67
2024/03/20 01:52:06;;;;;;;20.60;12.80;;;;;;;0.87;100.00;100835.66;111122;1231;75165;-67
2024/03/20 01:54:33;;;;;;;17.50;11.90;;;;;;;0.86;100.00;100836.86;111205;1232;72478;-67
2024/03/20 01:57:00;;;;;;;18.40;12.50;;;;;;;0.84;100.00;100831.22;111014;1231;72931;-66
2024/03/20 01:59:27;;;;;;;20.40;13.00;;;;;;;0.84;100.00;100835.63;111131;1231;61994;-66
2024/03/20 02:01:54;;;;;;;21.20;13.20;;;;;;;0.83;100.00;100835.22;111168;1231;61873;-66
2024/03/20 02:04:21;;;;;;;18.40;11.80;;;;;;;0.82;100.00;100830.42;111193;1231;75521;-66
2024/03/20 02:06:48;;;;;;;20.20;12.30;;;;;;;0.83;100.00;100831.61;111124;1231;72684;-66
2024/03/20 02:09:15;;;;;;;20.40;13.30;;;;;;;0.83;100.00;100829.15;111131;1236;71238;-66
2024/03/20 02:11:42;;;;;;;18.90;11.80;;;;;;;0.83;100.00;100820.73;111141;1231;61850;-67
2024/03/20 02:14:09;;;;;;;16.50;11.50;;;;;;;0.84;100.00;100821.63;111172;1231;62029;-67
2024/03/20 02:16:36;;;;;;;17.20;11.70;;;;;;;0.82;100.00;100821.15;111139;1235;76048;-68
2024/03/20 02:19:03;;;;;;;21.20;13.00;;;;;;;0.83;100.00;100821.18;111127;1231;73176;-67
2024/03/20 02:21:30;;;;;;;21.90;14.80;;;;;;;0.84;100.00;100826.52;111123;1231;71352;-67
2024/03/20 02:23:58;;;;;;;21.20;14.20;;;;;;;0.83;100.00;100830.52;111125;1231;61988;-66
2024/03/20 02:26:24;;;;;;;21.00;13.60;;;;;;;0.82;100.00;100833.09;111132;1231;61885;-67
2024/03/20 02:28:51;;;;;;;24.10;14.70;;;;;;;0.80;100.00;100834.57;111103;1235;75142;-66
2024/03/20 02:31:18;;;;;;;20.40;13.40;;;;;;;0.79;100.00;100834.40;111128;1231;73014;-66
2024/03/20 02:33:45;;;;;;;23.00;13.70;;;;;;;0.79;100.00;100837.73;111133;1235;70866;-66
2024/03/20 02:36:13;;;;;;;21.00;12.20;;;;;;;0.76;100.00;100834.16;111136;1232;61853;-66
2024/03/20 02:38:41;;;;;;;19.00;12.60;;;;;;;0.75;100.00;100836.77;111173;1231;61869;-66
2024/03/20 02:41:08;;;;;;;18.70;12.50;;;;;;;0.73;100.00;100839.35;111129;1231;75924;-66
2024/03/20 02:43:35;;;;;;;21.60;12.70;;;;;;;0.67;100.00;100838.92;111144;1231;72000;-67
2024/03/20 02:46:03;;;;;;;19.00;12.50;;;;;;;0.65;100.00;100836.83;111173;1231;73274;-66
2024/03/20 02:48:30;;;;;;;20.90;12.40;;;;;;;0.64;100.00;100833.27;111124;1231;61184;-66
2024/03/20 02:50:57;;;;;;;19.70;12.50;;;;;;;0.63;100.00;100831.45;111099;1236;61953;-67
2024/03/20 02:53:24;;;;;;;19.00;11.10;;;;;;;0.65;100.00;100836.06;111119;1235;76187;-67
2024/03/20 02:55:51;;;;;;;18.10;11.30;;;;;;;0.66;100.00;100844.10;111101;1231;72481;-68
2024/03/20 02:58:18;;;;;;;18.40;12.00;;;;;;;0.67;100.00;100845.85;111098;1235;72098;-66
2024/03/20 03:00:46;;;;;;;17.30;10.70;;;;;;;0.68;100.00;100835.98;111126;1231;61978;-65
2024/03/20 03:03:13;;;;;;;16.90;11.00;;;;;;;0.68;100.00;100837.39;111085;1231;61911;-65
2024/03/20 03:05:40;;;;;;;17.70;11.20;;;;;;;0.68;100.00;100835.61;111123;1235;75143;-68
2024/03/20 03:08:07;;;;;;;19.20;12.40;;;;;;;0.68;100.00;100838.93;111160;1231;72987;-67
2024/03/20 03:10:34;;;;;;;21.20;12.50;;;;;;;0.69;100.00;100842.73;111128;1231;72436;-66
2024/03/20 03:13:01;;;;;;;19.90;11.90;;;;;;;0.70;100.00;100846.77;111122;1231;61914;-65
2024/03/20 03:15:30;;;;;;;18.70;12.00;;;;;;;0.70;100.00;100852.91;111182;1231;62026;-66
2024/03/20 03:17:58;;;;;;;20.20;13.20;;;;;;;0.70;100.00;100856.40;111003;1231;75223;-65
2024/03/20 03:20:26;;;;;;;19.70;12.30;;;;;;;0.71;100.00;100853.73;111123;1231;72551;-66
2024/03/20 03:22:53;;;;;;;19.70;12.10;;;;;;;0.70;100.00;100849.42;111178;1231;72273;-65
2024/03/20 03:25:21;;;;;;;19.80;12.50;;;;;;;0.74;100.00;100852.35;111170;1231;62015;-65
2024/03/20 03:27:48;;;;;;;18.70;12.40;;;;;;;0.73;100.00;100852.63;111130;1231;61911;-67
2024/03/20 03:30:15;;;;;;;18.60;12.40;;;;;;;0.72;100.00;100852.04;111143;1231;75166;-66
2024/03/20 03:32:42;;;;;;;18.70;12.00;;;;;;;0.74;100.00;100854.11;111177;1231;72449;-66
2024/03/20 03:35:10;;;;;;;20.80;12.80;;;;;;;0.76;100.00;100851.35;111101;1231;73114;-67
2024/03/20 03:37:37;;;;;;;24.50;15.00;;;;;;;0.80;100.00;100860.14;111073;1231;61984;-66
2024/03/20 03:40:08;;;;;;;24.00;14.50;;;;;;;0.83;100.00;100855.89;111157;1231;61899;-66
2024/03/20 03:42:37;;;;;;;20.90;13.70;;;;;;;0.88;100.00;100857.77;111107;1236;75279;-66
2024/03/20 03:45:04;;;;;;;21.00;12.70;;;;;;;0.93;100.00;100858.34;111153;1231;72306;-65
2024/03/20 03:47:32;;;;;;;21.10;13.00;;;;;;;1.00;100.00;100855.98;111113;1231;71511;-66
2024/03/20 03:49:59;;;;;;;18.50;12.00;;;;;;;1.06;100.00;100851.95;111099;1231;62010;-66
2024/03/20 03:52:27;;;;;;;16.40;10.80;;;;;;;1.11;100.00;100853.59;111132;1231;61972;-66
2024/03/20 03:54:54;;;;;;;19.00;12.30;;;;;;;1.14;100.00;100857.91;111169;1231;73588;-66
2024/03/20 03:57:20;;;;;;;21.00;12.90;;;;;;;1.18;100.00;100851.18;111107;1232;72109;-66
2024/03/20 03:59:47;;;;;;;18.20;12.00;;;;;;;1.21;100.00;100855.02;111145;1236;70428;-67
2024/03/20 04:02:14;;;;;;;18.00;12.00;;;;;;;1.22;100.00;100861.78;111091;1231;61924;-67
2024/03/20 04:04:42;;;;;;;18.10;11.50;;;;;;;1.21;100.00;100861.09;111149;1231;61889;-66
2024/03/20 04:07:09;;;;;;;20.00;12.60;;;;;;;1.21;100.00;100857.96;111129;1231;75178;-66
2024/03/20 04:09:36;;;;;;;19.00;13.00;;;;;;;1.20;100.00;100861.92;111144;1231;70632;-65
2024/03/20 04:12:03;;;;;;;19.90;12.90;;;;;;;1.24;100.00;100868.66;111107;1231;72418;-65
2024/03/20 04:14:30;;;;;;;21.00;13.70;;;;;;;1.30;100.00;100869.27;111104;1231;61891;-66
2024/03/20 04:16:57;;;;;;;22.50;13.70;;;;;;;1.37;100.00;100869.34;111130;1231;62122;-65
2024/03/20 04:19:24;;;;;;;20.10;12.90;;;;;;;1.43;100.00;100864.87;111119;1231;75238;-65
2024/03/20 04:21:55;;;;;;;19.30;12.30;;;;;;;1.51;100.00;100856.70;111154;1231;71266;-65
2024/03/20 04:24:22;;;;;;;19.30;12.70;;;;;;;1.58;100.00;100855.18;111011;1231;72428;-65
2024/03/20 04:26:49;;;;;;;19.20;12.70;;;;;;;1.65;100.00;100869.42;111129;1232;60930;-65
2024/03/20 04:29:16;;;;;;;18.30;12.70;;;;;;;1.71;100.00;100870.63;111141;1231;61898;-65
2024/03/20 04:31:44;;;;;;;20.20;13.20;;;;;;;1.77;100.00;100871.45;111058;1235;75647;-68
2024/03/20 04:34:11;;;;;;;19.70;12.20;;;;;;;1.81;100.00;100875.86;111147;1231;72664;-69
2024/03/20 04:36:38;;;;;;;23.40;13.90;;;;;;;1.86;100.00;100875.17;111134;1231;72559;-66
2024/03/20 04:39:07;;;;;;;20.20;13.30;;;;;;;1.92;100.00;100878.73;111078;1231;61958;-67
2024/03/20 04:41:34;;;;;;;22.00;13.80;;;;;;;1.94;100.00;100880.67;111138;1231;61905;-66
2024/03/20 04:44:01;;;;;;;20.40;13.10;;;;;;;1.96;100.00;100884.68;111105;1231;75862;-66
2024/03/20 04:46:28;;;;;;;21.20;13.20;;;;;;;2.00;100.00;100885.98;111130;1231;72477;-67
2024/03/20 04:48:55;;;;;;;21.00;13.60;;;;;;;2.03;100.00;100881.80;111044;1235;72521;-67
2024/03/20 04:51:22;;;;;;;22.60;14.00;;;;;;;2.07;100.00;100883.10;111096;1231;62022;-66
2024/03/20 04:53:50;;;;;;;20.90;13.60;;;;;;;2.11;100.00;100885.91;111075;1231;61887;-67
2024/03/20 04:56:17;;;;;;;21.80;14.00;;;;;;;2.14;100.00;100889.63;111116;1231;75391;-67
2024/03/20 04:58:44;;;;;;;19.60;13.40;;;;;;;2.18;100.00;100893.86;111099;1231;71219;-67
2024/03/20 05:01:11;;;;;;;20.00;13.30;;;;;;;2.22;100.00;100892.76;111124;1231;72403;-66
2024/03/20 05:03:37;;;;;;;18.30;13.50;;;;;;;2.24;100.00;100894.56;111095;1231;61889;-66
2024/03/20 05:06:05;;;;;;;23.20;14.60;;;;;;;2.24;100.00;100896.59;111128;1231;61978;-66
2024/03/20 05:08:32;;;;;;;20.90;13.10;;;;;;;2.24;100.00;100897.85;111146;1232;75462;-67
2024/03/20 05:10:59;;;;;;;21.20;13.70;;;;;;;2.25;100.00;100899.63;111161;1231;72542;-67
2024/03/20 05:13:26;;;;;;;22.20;13.30;;;;;;;2.25;100.00;100903.00;111098;1231;73103;-66
2024/03/20 05:15:53;;;;;;;21.40;13.90;;;;;;;2.26;100.00;100907.75;111150;1231;62019;-66
2024/03/20 05:18:20;;;;;;;22.20;13.50;;;;;;;2.28;100.00;100910.55;111201;1231;61933;-66
2024/03/20 05:20:47;;;;;;;27.80;16.30;;;;;;;2.30;100.00;100909.19;111197;1231;75744;-65
2024/03/20 05:23:14;;;;;;;27.00;15.00;;;;;;;2.33;100.00;100912.52;111139;1231;73603;-65
2024/03/20 05:25:41;;;;;;;24.70;14.70;;;;;;;2.34;100.00;100920.25;111128;1231;72905;-66
2024/03/20 05:28:07;;;;;;;24.00;14.80;;;;;;;2.36;100.00;100923.74;111132;1231;61897;-65
2024/03/20 05:30:34;;;;;;;23.20;14.20;;;;;;;2.35;100.00;100919.56;111171;1235;62132;-67
2024/03/20 05:33:01;;;;;;;19.20;12.30;;;;;;;2.39;100.00;100923.55;111114;1231;72879;-66
2024/03/20 05:35:28;;;;;;;19.70;12.50;;;;;;;2.44;100.00;100925.90;111205;1231;72705;-67
2024/03/20 05:37:55;;;;;;;16.20;10.90;;;;;;;2.48;100.00;100926.44;111166;1231;72494;-67
2024/03/20 05:40:22;;;;;;;18.50;11.20;;;;;;;2.51;100.00;100924.61;111140;1231;61882;-67
2024/03/20 05:42:49;;;;;;;18.80;12.10;;;;;;;2.54;100.00;100925.34;111097;1231;61978;-65
2024/03/20 05:45:17;;;;;;;16.80;10.30;;;;;;;2.60;100.00;100921.31;111125;1231;74832;-65
2024/03/20 05:47:43;;;;;;;12.40;8.00;;;;;;;2.67;100.00;100909.30;111134;1231;71521;-65
2024/03/20 05:50:11;;;;;;;11.30;7.00;;;;;;;2.71;100.00;100905.52;111153;1231;72966;-67
2024/03/20 05:52:38;;;;;;;14.60;9.30;;;;;;;2.78;100.00;100904.16;111172;1231;61865;-67
2024/03/20 05:55:06;;;;;;;17.20;10.10;;;;;;;2.85;100.00;100908.39;111214;1231;62098;-65
2024/03/20 05:57:34;;;;;;;22.50;14.70;;;;;;;2.93;100.00;100903.44;111193;1231;75390;-66
2024/03/20 06:00:03;;;;;;;24.00;15.00;;;;;;;3.03;100.00;100902.10;111096;1231;73647;-67
2024/03/20 06:02:31;;;;;;;26.10;15.60;;;;;;;3.17;100.00;100900.50;111130;1231;72425;-68
2024/03/20 06:04:58;;;;;;;26.10;15.90;;;;;;;3.32;100.00;100902.27;111099;1231;61930;-67
2024/03/20 06:07:25;;;;;;;22.30;14.30;;;;;;;3.44;100.00;100908.18;111136;1231;62039;-66
2024/03/20 06:09:52;;;;;;;23.60;14.00;;;;;;;3.52;100.00;100908.94;111216;1231;74139;-66
2024/03/20 06:12:19;;;;;;;25.40;15.10;;;;;;;3.57;100.00;100905.52;111211;1231;71142;-66
2024/03/20 06:14:46;;;;;;;22.50;13.20;;;;;;;3.61;100.00;100906.22;111172;1231;71956;-66
2024/03/20 06:17:15;;;;;;;18.40;11.50;;;;;;;3.66;100.00;100910.08;111131;1231;62026;-66
2024/03/20 06:19:42;;;;;;;22.70;12.50;;;;;;;3.70;100.00;100911.02;111182;1231;61853;-66
2024/03/20 06:22:09;;;;;;;23.20;13.80;;;;;;;3.70;100.00;100918.17;111208;1231;75225;-66
2024/03/20 06:24:37;;;;;;;22.20;13.60;;;;;;;3.70;100.00;100923.94;111183;1231;71402;-65
2024/03/20 06:27:04;;;;;;;20.20;13.10;;;;;;;3.69;100.00;100918.71;111227;1231;72599;-65
2024/03/20 06:29:32;;;;;;;23.60;14.30;;;;;;;3.66;100.00;100921.63;111141;1231;62001;-66
2024/03/20 06:32:00;;;;;;;23.90;13.70;;;;;;;3.63;100.00;100923.74;111161;1233;61927;-65
2024/03/20 06:34:27;;;;;;;24.30;13.40;;;;;;;3.65;100.00;100923.42;111222;1235;75767;-66
2024/03/20 06:36:57;;;;;;;25.80;13.80;;;;;;;3.70;100.00;100924.06;111071;1231;73299;-65
2024/03/20 06:39:25;;;;;;;22.60;13.50;;;;;;;3.77;100.00;100920.77;111162;1231;73811;-65
2024/03/20 06:41:52;;;;;;;25.80;14.40;;;;;;;3.83;100.00;100925.33;111201;1232;62033;-65
2024/03/20 06:44:20;;;;;;;24.10;13.20;;;;;;;3.84;100.00;100932.23;111006;1232;61847;-65
2024/03/20 06:46:47;;;;;;;23.70;13.80;;;;;;;3.87;100.00;100932.90;111194;1237;73943;-67
2024/03/20 06:49:15;;;;;;;21.70;13.40;;;;;;;3.92;100.00;100933.14;111169;1232;73052;-66
2024/03/20 06:51:43;;;;;;;18.10;11.80;;;;;;;4.01;100.00;100937.04;111121;1231;72949;-66
2024/03/20 06:54:16;;;;;;;18.80;12.10;;;;;;;4.12;100.00;100940.69;111188;1235;61992;-65
2024/03/20 06:56:48;;;;;;;18.20;12.00;;;;;;;4.19;100.00;100948.63;111178;1231;61892;-66
2024/03/20 06:59:16;;;;;;;19.00;12.50;;;;;;;4.18;100.00;100946.86;111165;1231;75039;-67
2024/03/20 07:01:44;;;;;;;21.90;13.70;;;;;;;4.12;100.00;100944.15;111116;1231;72701;-66
2024/03/20 07:04:11;;;;;;;19.60;12.30;;;;;;;4.06;100.00;100940.36;111094;1232;72483;-65
2024/03/20 07:06:39;;;;;;;19.60;13.10;;;;;;;4.01;100.00;100946.84;111157;1231;61186;-65
2024/03/20 07:09:08;;;;;;;18.70;11.60;;;;;;;3.97;100.00;100942.40;111256;1231;61894;-64
2024/03/20 07:11:35;;;;;;;20.60;13.50;;;;;;;3.96;100.00;100942.33;111244;1231;76439;-64
2024/03/20 07:14:02;;;;;;;22.70;14.50;;;;;;;3.95;100.00;100940.79;111189;1235;72543;-64
2024/03/20 07:16:29;;;;;;;21.80;13.50;;;;;;;3.93;100.00;100935.05;111079;1237;73036;-65
2024/03/20 07:18:57;;;;;;;20.50;12.70;;;;;;;3.93;100.00;100937.65;111076;1231;62015;-64
2024/03/20 07:21:25;;;;;;;18.00;12.50;;;;;;;3.96;100.00;100934.67;111126;1231;62014;-64
2024/03/20 07:23:52;;;;;;;19.50;12.10;;;;;;;4.00;100.00;100931.42;111112;1232;75172;-65
2024/03/20 07:26:19;;;;;;;20.00;12.90;;;;;;;4.04;100.00;100927.63;111102;1231;72501;-64
2024/03/20 07:28:46;;;;;;;17.60;11.20;;;;;;;4.06;100.00;100926.46;111127;1231;71731;-65
2024/03/20 07:31:13;;;;;;;19.40;11.80;;;;;;;4.03;100.00;100928.29;111081;1232;61995;-67
2024/03/20 07:33:40;;;;;;;17.30;10.60;;;;;;;3.98;100.00;100930.86;111151;1232;62064;-65
2024/03/20 07:36:08;;;;;;;17.10;10.60;;;;;;;3.97;100.00;100934.40;111094;1232;76897;-65
2024/03/20 07:38:35;;;;;;;17.20;10.60;;;;;;;3.98;100.00;100935.61;111107;1231;72529;-64
2024/03/20 07:41:02;;;;;;;15.00;10.40;;;;;;;3.98;100.00;100936.71;111119;1232;73748;-64
2024/03/20 07:43:29;;;;;;;16.60;10.80;;;;;;;3.96;100.00;100937.98;111142;1232;59869;-64
2024/03/20 07:45:57;;;;;;;16.20;10.10;;;;;;;3.98;100.00;100937.94;111122;1232;62524;-66
2024/03/20 07:48:24;;;;;;;13.50;9.30;;;;;;;4.02;100.00;100931.38;111101;1236;77161;-64
2024/03/20 07:50:55;;;;;;;15.20;10.40;;;;;;;4.05;100.00;100928.57;111092;1235;71849;-63
2024/03/20 07:53:23;;;;;;;13.80;9.40;;;;;;;4.05;100.00;100925.36;111126;1232;73882;-65
2024/03/20 07:55:51;;;;;;;12.90;9.20;;;;;;;4.04;100.00;100928.48;111096;1232;62009;-64
2024/03/20 07:58:19;;;;;;;15.20;9.30;;;;;;;4.06;100.00;100922.76;111108;1230;61904;-64
2024/03/20 08:00:48;;;;;;;14.20;9.80;;;;;;;4.13;100.00;100920.64;111152;1232;74391;-65
2024/03/20 08:03:15;;;;;;;16.60;10.70;;;;;;;4.21;100.00;100919.52;111132;1236;73758;-63
2024/03/20 08:05:42;;;;;;;14.20;9.60;;;;;;;4.28;100.00;100915.98;111105;1232;72521;-63
2024/03/20 08:08:09;;;;;;;13.20;8.80;;;;;;;4.30;100.00;100915.13;111123;1232;61888;-64
2024/03/20 08:10:36;;;;;;;13.40;9.50;;;;;;;4.31;100.00;100915.04;111144;1232;62132;-65
2024/03/20 08:13:04;;;;;;;14.40;9.20;;;;;;;4.32;100.00;100913.81;111144;1231;75097;-63
2024/03/20 08:15:31;;;;;;;14.00;9.30;;;;;;;4.35;100.00;100911.69;111215;1232;72751;-63
2024/03/20 08:17:58;;;;;;;13.70;8.70;;;;;;;4.38;100.00;100904.70;111158;1232;71406;-63
2024/03/20 08:20:26;;;;;;;14.00;9.20;;;;;;;4.38;100.00;100904.85;111118;1231;60871;-64
2024/03/20 08:22:53;;;;;;;11.80;8.30;;;;;;;4.38;100.00;100905.91;111128;1232;61934;-66
2024/03/20 08:25:20;;;;;;;11.20;8.60;;;;;;;4.40;100.00;100908.13;111152;1232;75439;-65
2024/03/20 08:27:47;;;;;;;13.10;9.10;;;;;;;4.40;100.00;100907.61;111100;1232;73743;-64
2024/03/20 08:30:14;;;;;;;13.20;9.60;;;;;;;4.45;100.00;100904.30;111155;1231;71453;-63
2024/03/20 08:32:41;;;;;;;11.10;7.90;;;;;;;4.55;100.00;100908.58;111109;1232;61981;-64
2024/03/20 08:35:12;;;;;;;11.40;8.00;;;;;;;4.64;100.00;100901.52;111162;1232;61899;-64
2024/03/20 08:37:39;;;;;;;12.50;8.30;;;;;;;4.73;100.00;100902.67;111105;1232;76637;-64
2024/03/20 08:40:09;;;;;;;12.80;8.90;;;;;;;4.80;100.00;100904.30;111140;1232;73071;-64
2024/03/20 08:42:36;;;;;;;11.30;7.90;;;;;;;4.86;100.00;100904.84;111134;1232;72733;-64
2024/03/20 08:45:05;;;;;;;12.70;7.80;;;;;;;4.90;100.00;100912.03;111197;1232;62423;-65
2024/03/20 08:47:35;;;;;;;11.10;7.60;;;;;;;4.91;100.00;100915.62;111148;1231;62000;-65
2024/03/20 08:50:03;;;;;;;12.90;8.30;;;;;;;4.90;100.00;100914.86;111194;1232;75480;-64
2024/03/20 08:52:30;;;;;;;12.30;7.90;;;;;;;4.87;100.00;100911.60;111130;1232;73828;-63
2024/03/20 08:54:57;;;;;;;12.40;8.10;;;;;;;4.86;100.00;100910.38;111157;1231;72824;-64
2024/03/20 08:57:24;;;;;;;13.60;8.90;;;;;;;4.82;100.00;100913.70;111132;1231;62319;-67
2024/03/20 08:59:52;;;;;;;12.20;8.20;;;;;;;4.79;100.00;100911.96;111158;1232;62103;-65
2024/03/20 09:02:19;;;;;;;12.70;7.80;;;;;;;4.79;100.00;100913.86;111181;1232;74080;-64
2024/03/20 09:04:46;;;;;;;12.90;8.90;;;;;;;4.77;100.00;100918.27;111233;1232;72832;-63
2024/03/20 09:07:14;;;;;;;13.00;8.60;;;;;;;4.76;100.00;100912.99;111168;1231;71458;-64
2024/03/20 09:09:41;;;;;;;14.20;8.10;;;;;;;4.77;100.00;100914.39;111076;1232;61943;-65
2024/03/20 09:12:08;;;;;;;13.90;8.20;;;;;;;4.72;100.00;100915.45;111029;1237;61958;-64
2024/03/20 09:14:35;;;;;;;12.80;8.10;;;;;;;4.66;100.00;100915.60;110872;1233;75162;-65
2024/03/20 09:17:03;;;;;;;14.50;9.10;;;;;;;4.61;100.00;100915.52;110930;1232;72791;-66
2024/03/20 09:19:31;;;;;;;14.10;8.60;;;;;;;4.62;100.00;100915.29;110933;1236;72599;-65
2024/03/20 09:21:58;;;;;;;14.80;8.50;;;;;;;4.67;100.00;100914.00;112235;1232;60010;-66
2024/03/20 09:24:27;;;;;;;16.40;9.90;;;;;;;4.74;100.00;100911.94;112245;1231;60669;-66
2024/03/20 09:26:55;;;;;;;15.00;9.60;;;;;;;4.80;100.00;100917.17;111426;1232;75280;-66
2024/03/20 09:29:22;;;;;;;15.20;9.40;;;;;;;4.82;100.00;100914.55;112027;1231;72704;-65
2024/03/20 09:31:49;;;;;;;15.30;9.20;;;;;;;4.85;100.00;100912.92;112186;1232;73810;-67
2024/03/20 09:34:16;;;;;;;16.10;10.10;;;;;;;4.89;100.00;100910.33;110944;1237;61887;-67
2024/03/20 09:36:43;;;;;;;15.30;9.80;;;;;;;4.94;100.00;100908.92;110978;1235;62730;-66
2024/03/20 09:39:10;;;;;;;17.00;9.90;;;;;;;4.99;100.00;100907.60;110920;1232;75330;-64
2024/03/20 09:41:37;;;;;;;15.70;9.40;;;;;;;5.01;100.00;100907.55;110914;1232;72898;-65
2024/03/20 09:44:05;;;;;;;14.50;9.80;;;;;;;5.00;100.00;100916.39;110830;1232;73797;-67
2024/03/20 09:46:32;;;;;;;18.40;11.10;;;;;;;4.97;100.00;100913.51;110967;1232;62159;-68
2024/03/20 09:48:59;;;;;;;16.40;10.10;;;;;;;4.95;100.00;100912.83;111077;1232;61897;-64
2024/03/20 09:51:26;;;;;;;16.20;10.30;;;;;;;4.93;100.00;100914.25;110924;1236;75285;-65
2024/03/20 09:53:53;;;;;;;16.70;10.30;;;;;;;4.95;100.00;100912.88;110921;1235;73980;-64
2024/03/20 09:56:26;;;;;;;16.90;10.10;;;;;;;4.95;100.00;100913.20;110701;1232;73704;-64
2024/03/20 09:58:54;;;;;;;14.80;9.20;;;;;;;4.92;100.00;100913.33;110957;1237;61910;-63
2024/03/20 10:01:21;;;;;;;17.70;10.80;;;;;;;4.89;100.00;100917.67;110783;1232;61853;-63
2024/03/20 10:03:55;;;;;;;18.30;11.40;;;;;;;4.85;100.00;100911.00;111014;1232;75030;-64
2024/03/20 10:06:24;;;;;;;17.60;11.90;;;;;;;4.82;100.00;100909.46;111000;1231;72821;-63
2024/03/20 10:08:51;;;;;;;20.90;12.70;;;;;;;4.78;100.00;100907.57;110813;1232;72657;-65
2024/03/20 10:11:18;;;;;;;16.30;11.40;;;;;;;4.77;100.00;100902.98;110976;1232;62100;-64
2024/03/20 10:13:45;;;;;;;15.50;10.90;;;;;;;4.80;100.00;100905.29;110951;1235;61285;-63
2024/03/20 10:16:14;;;;;;;15.30;10.10;;;;;;;4.86;100.00;100906.32;111595;1232;74299;-63
2024/03/20 10:18:53;;;;;;;19.50;11.70;;;;;;;4.90;100.00;100903.20;111558;1232;72502;-63
2024/03/20 10:21:20;;;;;;;19.00;11.00;;;;;;;4.91;100.00;100903.13;112196;1231;73694;-66
2024/03/20 10:23:47;;;;;;;15.40;10.30;;;;;;;4.90;100.00;100904.06;111072;1232;61984;-65
2024/03/20 10:26:15;;;;;;;16.40;10.10;;;;;;;4.90;100.00;100901.62;110935;1232;61866;-65
2024/03/20 10:28:43;;;;;;;15.30;10.50;;;;;;;4.89;100.00;100897.86;110905;1232;75427;-65
2024/03/20 10:31:11;;;;;;;16.00;10.10;;;;;;;4.88;100.00;100892.02;111740;1232;72913;-63
2024/03/20 10:33:53;;;;;;;15.70;10.10;;;;;;;4.88;100.00;100893.97;110953;1235;72426;-65
2024/03/20 10:36:21;;;;;;;13.20;9.00;;;;;;;4.90;100.00;100893.42;110958;1231;62003;-63
2024/03/20 10:38:48;;;;;;;14.90;9.50;;;;;;;4.90;100.00;100887.00;110914;1231;60636;-64
2024/03/20 10:41:15;;;;;;;14.40;9.20;;;;;;;4.91;100.00;100887.16;111008;1232;74056;-65
2024/03/20 10:43:42;;;;;;;14.00;9.20;;;;;;;4.91;100.00;100882.23;110934;1235;72768;-65
2024/03/20 10:46:16;;;;;;;13.60;8.70;;;;;;;4.89;100.00;100880.04;111013;1232;72289;-62
2024/03/20 10:48:44;;;;;;;11.40;7.90;;;;;;;4.91;100.00;100870.84;110993;1232;61783;-65
2024/03/20 10:51:18;;;;;;;12.70;8.40;;;;;;;4.94;100.00;100871.58;110880;1232;61903;-65
2024/03/20 10:53:45;;;;;;;13.30;8.20;;;;;;;5.02;100.00;100867.39;110984;1235;75227;-65
2024/03/20 10:56:19;;;;;;;12.90;7.50;;;;;;;5.03;100.00;100868.36;110751;1237;72501;-64
2024/03/20 10:58:59;;;;;;;11.10;6.70;;;;;;;5.04;100.00;100872.06;111569;1231;73825;-65
2024/03/20 11:01:25;;;;;;;9.10;5.50;;;;;;;5.07;100.00;100869.73;110974;1231;61853;-66
2024/03/20 11:03:56;;;;;;;8.80;5.80;;;;;;;5.07;100.00;100865.77;110915;1232;61994;-67
2024/03/20 11:09:21;;;;;;;10.00;5.80;;;;;;;5.14;100.00;100870.28;110973;1238;72791;-65